Antonio Maceo International Airport
MUCU : now visible

Airfield :











YOU CAN JOIN US ON...

 
LOGIN :

Register | Disclaimer

   EN    FR    IT 

 









Legend :    VFR   Marginal VFR   IFR   Intensive IFR   Very Intensive IFR
Visi :
Ceiling :
>= 8 km
>= 3000ft
5 to 8 km
1000 to 3000 ft
1500m to 5 km
500 to 1000 ft
800 to 1500m
200 to 500 ft
< 800m
< 200 ft
Symbols :   Thunderstorms  Fog  Heavy snow  Heavy precipitations  Wind > 20 kt






- Airport Elevation : 249 ft
- IATA code : SCU


MUCU - Antonio Maceo International

CURRENT METAR :
  • 170552Z 36003KT 350V050 9000 FEW020 24/21 Q1014

EXPIRED METARs :
  • 170451Z 04005KT 9000 FEW020 25/21 Q1014
  • 170351Z 01004KT 350V050 9000 FEW020 24/21 Q1014

TAF MUCU
Valid from the 17 at 06:00 until the 18 at 06:00 UTC


170500Z 1706/1806 VRB03KT 9000 FEW020
BECMG 1715/1717 18007KT SCT020
TEMPO 1720/1724 5000 TSRA SCT018CB BKN020
BECMG 1801/1803 VRB03KT FEW020



MET'MAP, your aeronautical weather chart ! - Copyright ORBIFLY December 2007 - Disclaimer

ORBIFLY MET'MAP TEAM :

Programming & Development : Alexandra Zaïnal
Concept & Development : Baudouin d'Aumeries
Co-Development & Prog : Marc-Olivier Méhu
Technical & hardware support : Manuel Goepfert

Contact : metmap@orbifly.com




SOURCES & CREDITS :

   NOAA       Earth
Advisory